Portada
METAR-TAF:

METAR-TAF

Aeropuertos :

Base Aérea de Armilla

Granada, España

latitud: 37-08N, longitud: 003-38-08W, altitud: 700 m

Observación

El informe se hizo hace 7 horas y 1 minutos, a las 13:00 UTC
Viento 2 kt con dirección variable
Temperatura 15°C
Humedad 59%
Presión 1016 hPa
Visibilidad 10 km o más
Cielo nuboso a una altura de 6800 ft

METAR: LEGA 291300Z VRB02KT 9999 BKN068 15/07 Q1016

Hora: 21:01 (20:01 UTC)


TAF: falta

Observaciones y pronósticos meteorológicos de más de 4000 aeropuertos (mensajes METAR y TAF).

Los puntos amarillos y rojos representan las estaciones disponibles.

Ponga el ratón en el punto deseado para ver el nombre de la estación.

Haga clic para ver las observaciones y los pronósticos meteorológicos.

Para cambiar el mapa : haga clic en los botones verdes con una cruz de color negro para hacer un zoom, en el botón verde con un guión para alejar o en las flechas verdes para mapas adyacentes.


METAR-TAF: